Terminal Aerodrome Forecast
Issued by NWS

Home | Current Version | Previous Version | Text Only | Print | Product List | Glossary Off
Versions: 1 2 3 4 5 6 7 8 9 10 11 12 13 14 15 16 17 18 19 20 21

000
FTUS43 KBIS 191700
TAFDIK
TAF
KDIK 191735Z 1918/2018 18008KT P6SM SCT070
     FM200200 15008KT P6SM SKC
     FM200900 14006KT P6SM SCT035 BKN080 OVC250
     FM201400 15005KT P6SM VCTS SCT040CB BKN070 OVC250=

USA.gov is the U.S. government's official web portal to all federal, state and local government web resources and services.